メインページ
METAR-TAF:

METAR-TAF

空港 :

ポートオブスペイン, Trinidad, トリニダード・トバゴ

緯度: 10-37N, 経度: 061-21W, 海抜: 12m

現時点の気象観測

当レポートは38分前の22:00(UTC)に作成
南東の風 5kt
気温 28°C
湿度 79%
気圧 1012 hPa
視程10km以上
高度1800ftの雲はほとんどない

METAR: TTPP 262200Z 13005KT 9999 FEW018 28/24 Q1012 NOSIG

時間: 18:38 (22:38 UTC)

予報

当レポートは6時間38分前の16:00(UTC)に作成
予報は26日の 18時(UTC)から 27日の 18時(UTC)まで有効
東/南東の風 10kt
視程10km以上
高度1800ftの雲は散在している
26日の 18時(UTC)から 27日の 02時(UTC)まで一時的に
視程: 5000m
高度1600ftの千切れ雲あり
近辺でにわか雨, にわか雨
確率 40% :
26日の 18時(UTC)から 26日の 22時(UTC)まで一時的に
変向風 10kt、最大25ktの突風を伴う
視程: 2000m
高度1000ftの雲はほとんどない, 積乱雲.
高度1400ftの千切れ雲あり
近辺でにわか雨, 激しい雷雨, 雨
26日の 23時(UTC)から 27日の 01時(UTC)まで徐々に
の風 kt
高度1600ftの雲は散在している
確率 30% :
27日の 06時(UTC)から 27日の 11時(UTC)まで一時的に
視程: 5000m
高度3600ftの雲は散在している
近辺でにわか雨, にわか雨
27日の 11時(UTC)から 27日の 13時(UTC)まで徐々に
東/南東の風 10kt
高度1600ftの雲は散在している
高度3800ftの雲は散在している
確率 40% :
27日の 14時(UTC)から 27日の 18時(UTC)まで一時的に
視程: 5000m
高度1000ftの雲はほとんどない, 積乱雲.
高度1500ftの千切れ雲あり
近辺でにわか雨, にわか雨

TAF: TTPP 261600Z 2618/2718 11010KT 9999 SCT018 TEMPO 2618/2702 5000 VCSH SHRA BKN016 PROB40 TEMPO 2618/2622 VRB10G25KT 2000 VCSH TSRA FEW010CB BKN014 BECMG 2623/2701 00000KT SCT016 PROB30 TEMPO 2706/2711 5000 VCSH SHRA SCT1015 SCT036 BECMG 2711/2713 12010KT SCT016 SCT038 PROB40 TEMPO 2714/2718 5000 VCSH SHRA FEW010CB BKN015

4,000以上の空港の気象観測と天気予報(METAR報とTAF報)

利用可能な観測所は地図上に黄色い丸と赤い丸で示す。

丸の上にカーソルを重ねると観測所名を参照できる。

次にクリックすると気象観測と天気予報を参照できる。

マップの切り替え:黒色「×」印の緑ボタンをクリックして拡大、「-」印の緑ボタンをクリックして縮小、緑色の三角印をクリックして隣りの地図に切り替え


METAR-TAF: